Kotzebue, AK

12:42 PM AKST on March 06, 2015 (GMT -0900)
Wien Memorial | Change Station
CLOSE
Current Station
Airport
Location: Kotzebue,
Elevation: 16 ft
Nearby Weather Stations
Active Advisory: Winter Storm Warning

Elev 16 ft 66.88 °N, 162.60 °W | Updated 42 minutes ago

Light Snow
Light Snow
8 °F
Feels Like -11 °F
N
18
Wind Variable Wind from East

Today
High -- | Low -- °F
--% Chance of Precip.
Yesterday
High -- | Low -- °F
Precip. -- in
8:45 AM 7:18 PM
Full, 99% visible
Pressure 29.75 in
Visibility 1.0 miles
Clouds Mostly Cloudy 2500 ft
Overcast 3300 ft
Windchill -11 °F
Dew Point 3 °F
Humidity 80%
Rainfall 0.01 in
Snow Depth Not available.
UV 0 out of 12
Pollen Not available.
Air Quality Not available.
Flu Activity Not available.
SPECI PAOT 062100Z 09016KT 1SM R09/6000VP6000FT -SN BKN025 OVC033 M13/M16 A2975 RMK AO2 P0000 T11331161

More Conditions Fewer Conditions

Pressure 29.75 in
Visibility 1.0 miles
Clouds Mostly Cloudy 2500 ft
Overcast 3300 ft
Windchill -11 °F
Dew Point 3 °F
Humidity 80%
Rainfall 0.01 in
Snow Depth Not available.
UV 0 out of 12
Pollen Not available.
Air Quality Not available.
Flu Activity Not available.
SPECI PAOT 062100Z 09016KT 1SM R09/6000VP6000FT -SN BKN025 OVC033 M13/M16 A2975 RMK AO2 P0000 T11331161

More Conditions Fewer Conditions

10-Day Weather Forecast

Almanac

Astronomy

Mar. 06, 2015 Rise Set
Actual Time
Civil Twilight
Nautical Twilight
Astronomical Twilight
Moon
Length of Visible Light
Length of Day
Tomorrow will be .
, % of the Moon is Illuminated

Today's Extremes

State Highs State Lows

Community

WunderPhotos

Upload Photos

1,803,406 photos uploaded!

WunderBlogs® & News

Nearby

Air Quality

  Air Quality AQ Index Pollutant
Not available.

Snow Depth

Station Depth Elevation

Earthquake Activity

City Distance Mag. Time & Date
Minimum magnitude displayed is 2.5.

Coastal Water Temperatures

Place Temperature

Nearby Weather Stations

Winter Storm Warning
Statement as of 4:19 AM AKST on March 06, 2015

... Winter Storm Warning remains in effect from noon today to 9 am
akst Saturday...

A Winter Storm Warning for heavy snow remains in effect from noon
today to 9 am akst Saturday.

* Snow... 6 to 8 inches

* blowing snow... reducing visibility to one half mile or less at
times.

* Timing... snow... heavy at times will begin this afternoon and
continue through tonight before tapering off Saturday morning.
Winds will increase this afternoon and continue through tonight
before tapering off Saturday morning.

* Impacts... travel and outdoor activities will be difficult

Precautionary/preparedness actions...

A Winter Storm Warning means one or more significant winter
weather hazards are occurring or expected.